createdAt,value
2023-03-13T00:00:35.527Z,0.72
2023-03-13T00:01:35.747Z,0.95
2023-03-13T00:02:35.997Z,1.03
2023-03-13T00:03:36.207Z,0.60
2023-03-13T00:04:36.470Z,0.67
2023-03-13T00:05:36.660Z,0.70
2023-03-13T00:06:36.876Z,0.80
2023-03-13T00:07:37.078Z,0.53
2023-03-13T00:08:37.289Z,1.00
2023-03-13T00:09:37.478Z,0.69
2023-03-13T00:10:37.644Z,1.07
2023-03-13T00:11:37.908Z,2.08
2023-03-13T00:12:38.119Z,2.14
2023-03-13T00:13:38.219Z,1.68
2023-03-13T00:14:38.535Z,1.50
2023-03-13T00:15:38.723Z,1.13
2023-03-13T00:16:38.986Z,1.21
2023-03-13T00:17:39.151Z,1.94
2023-03-13T00:18:39.425Z,1.94
2023-03-13T00:19:39.465Z,1.75
2023-03-13T00:20:39.715Z,1.81
2023-03-13T00:21:39.853Z,1.68
2023-03-13T00:22:40.013Z,1.25
2023-03-13T00:23:40.178Z,0.85
2023-03-13T00:24:40.313Z,0.70
2023-03-13T00:25:40.469Z,0.70
2023-03-13T00:26:40.673Z,0.59
2023-03-13T00:27:40.814Z,0.68
2023-03-13T00:28:40.952Z,0.47
2023-03-13T00:29:41.036Z,0.44
2023-03-13T00:30:41.200Z,0.80
2023-03-13T00:31:41.244Z,1.92
2023-03-13T00:32:41.374Z,1.76
2023-03-13T00:33:41.463Z,1.02
2023-03-13T00:34:41.571Z,0.93
2023-03-13T00:35:41.701Z,0.88
2023-03-13T00:36:41.784Z,0.69
2023-03-13T00:37:41.901Z,0.87
2023-03-13T00:38:42.037Z,1.16
2023-03-13T00:39:42.147Z,1.58
2023-03-13T00:40:42.260Z,2.31
2023-03-13T00:41:42.418Z,1.23
2023-03-13T00:42:42.533Z,1.13
2023-03-13T00:43:42.683Z,0.79
2023-03-13T00:44:42.774Z,0.51
2023-03-13T00:45:42.896Z,0.94
2023-03-13T00:46:43.014Z,0.81
2023-03-13T00:47:43.096Z,0.93
2023-03-13T00:48:43.183Z,0.49
2023-03-13T00:49:43.295Z,0.68
2023-03-13T00:50:43.383Z,0.79
2023-03-13T00:51:43.470Z,0.50
2023-03-13T00:52:43.526Z,0.82
2023-03-13T00:53:43.595Z,0.51
2023-03-13T00:54:43.680Z,1.00
2023-03-13T00:55:43.745Z,0.45
2023-03-13T00:56:43.825Z,0.52
2023-03-13T00:57:43.899Z,0.40
2023-03-13T00:58:43.985Z,0.85
2023-03-13T00:59:44.069Z,0.48
2023-03-13T01:00:44.139Z,0.49
2023-03-13T01:01:44.215Z,0.68
2023-03-13T01:02:44.388Z,1.03
2023-03-13T01:03:44.377Z,0.64
2023-03-13T01:04:44.475Z,0.57
2023-03-13T01:05:44.564Z,0.42
2023-03-13T01:06:44.667Z,0.53
2023-03-13T01:07:44.763Z,0.44
2023-03-13T01:08:44.859Z,0.45
2023-03-13T01:09:44.937Z,0.46
2023-03-13T01:10:45.028Z,0.79
2023-03-13T01:11:45.116Z,0.71
2023-03-13T01:12:45.210Z,0.55
2023-03-13T01:13:45.290Z,0.57
2023-03-13T01:14:45.387Z,0.43
2023-03-13T01:15:45.477Z,0.54
2023-03-13T01:16:45.525Z,0.57
2023-03-13T01:17:45.599Z,1.18
2023-03-13T01:18:45.670Z,2.06
2023-03-13T01:19:45.828Z,1.71
2023-03-13T01:20:45.818Z,2.36
2023-03-13T01:21:45.909Z,1.65
2023-03-13T01:22:45.976Z,1.49
2023-03-13T01:23:46.077Z,0.91
2023-03-13T01:24:46.153Z,0.67
2023-03-13T01:25:46.193Z,1.84
2023-03-13T01:26:46.302Z,2.05
2023-03-13T01:27:46.419Z,1.95
2023-03-13T01:28:46.587Z,2.00
2023-03-13T01:29:46.711Z,1.40
2023-03-13T01:30:46.919Z,1.96
2023-03-13T01:31:47.011Z,1.57
2023-03-13T01:32:47.204Z,2.24
2023-03-13T01:34:47.354Z,3.31
2023-03-13T01:35:47.511Z,1.55
2023-03-13T01:36:47.609Z,1.63
2023-03-13T01:37:47.675Z,1.12
2023-03-13T01:38:47.788Z,1.31
2023-03-13T01:39:47.858Z,2.12
2023-03-13T01:40:47.957Z,2.11
2023-03-13T01:41:48.042Z,1.92
2023-03-13T01:42:48.271Z,1.71
2023-03-13T01:43:48.499Z,1.43
2023-03-13T01:44:48.724Z,1.58
2023-03-13T01:57:50.670Z,0.52
2023-03-13T01:58:50.729Z,0.48
2023-03-13T01:59:50.790Z,0.44
2023-03-13T02:00:50.844Z,0.67
2023-03-13T02:01:50.967Z,1.45
2023-03-13T02:28:53.346Z,0.59
2023-03-13T02:29:53.417Z,0.44
2023-03-13T03:34:00.624Z,0.65
2023-03-13T03:35:00.758Z,0.71
2023-03-13T03:36:00.929Z,0.67
2023-03-13T03:37:01.022Z,0.58
2023-03-13T03:38:01.110Z,0.79
2023-03-13T03:39:01.228Z,0.64
2023-03-13T03:40:01.428Z,0.63
2023-03-13T04:23:10.759Z,0.44
2023-03-13T04:24:10.983Z,0.44
2023-03-13T04:25:11.221Z,0.69
2023-03-13T04:26:11.434Z,0.40
2023-03-13T04:27:11.683Z,1.00
2023-03-13T04:28:11.877Z,0.71
2023-03-13T04:29:12.110Z,1.15
2023-03-13T04:30:12.363Z,0.99
2023-03-13T04:31:12.604Z,0.87
2023-03-13T04:32:12.852Z,0.57
2023-03-13T04:33:13.062Z,0.53
2023-03-13T04:34:13.267Z,0.67
2023-03-13T04:35:13.575Z,0.72
2023-03-13T04:36:13.752Z,0.77
2023-03-13T04:37:14.044Z,0.79
2023-03-13T04:38:14.296Z,1.07
2023-03-13T04:39:14.529Z,1.06
2023-03-13T04:40:14.755Z,0.89
2023-03-13T04:41:15.004Z,1.22
2023-03-13T04:42:15.228Z,0.65
2023-03-13T04:43:15.480Z,0.75
2023-03-13T04:44:15.661Z,0.82
2023-03-13T04:45:15.847Z,0.54
2023-03-13T04:46:16.143Z,0.27
2023-03-13T04:47:16.280Z,0.40
2023-03-13T04:48:16.473Z,0.50
2023-03-13T04:49:16.779Z,0.62
2023-03-13T04:50:17.015Z,1.06
2023-03-13T04:51:17.233Z,1.71
2023-03-13T04:52:17.378Z,1.67
2023-03-13T04:53:17.633Z,1.15
2023-03-13T04:54:17.879Z,1.63
2023-03-13T05:07:20.792Z,1.32
2023-03-13T05:08:21.040Z,1.08
2023-03-13T05:09:21.249Z,0.82
2023-03-13T05:10:21.471Z,0.90
2023-03-13T05:50:30.782Z,1.52
2023-03-13T05:51:31.095Z,1.89
2023-03-13T05:52:31.300Z,2.12
2023-03-13T05:53:31.520Z,3.00
2023-03-13T05:54:31.719Z,2.38
2023-03-13T05:55:32.022Z,2.29
2023-03-13T05:56:32.236Z,1.94
2023-03-13T05:57:32.469Z,1.90
2023-03-13T05:58:32.695Z,1.33
2023-03-13T05:59:32.927Z,1.29
2023-03-13T06:35:54.849Z,4.51
2023-03-13T06:37:40.920Z,3.51
2023-03-13T06:38:40.989Z,4.26
2023-03-13T07:42:50.716Z,0.69
2023-03-13T07:43:50.976Z,1.09
2023-03-13T07:44:51.155Z,1.42
2023-03-13T07:45:51.306Z,2.45
2023-03-13T07:46:51.586Z,2.27
2023-03-13T07:47:51.796Z,2.41
2023-03-13T07:48:52.768Z,2.28
2023-03-13T07:49:52.035Z,1.82
2023-03-13T07:50:52.066Z,2.15
2023-03-13T07:51:52.058Z,1.80
2023-03-13T07:52:52.127Z,1.67
2023-03-13T07:53:52.110Z,2.11
2023-03-13T07:54:52.149Z,2.51
2023-03-13T07:55:52.155Z,1.69
2023-03-13T07:56:52.316Z,2.06
2023-03-13T07:57:52.253Z,2.21
2023-03-13T07:58:52.318Z,1.89
2023-03-13T07:59:52.361Z,2.72
2023-03-13T08:00:52.420Z,1.97
2023-03-13T08:01:53.279Z,1.59
2023-03-13T08:02:52.489Z,1.82
2023-03-13T08:03:52.595Z,2.08
2023-03-13T08:04:52.543Z,2.19
2023-03-13T08:05:52.565Z,1.63
2023-03-13T08:06:52.630Z,1.24
2023-03-13T08:07:52.661Z,1.52
2023-03-13T08:08:52.703Z,1.15
2023-03-13T08:09:52.739Z,1.23
2023-03-13T08:10:52.790Z,2.08
2023-03-13T08:11:52.879Z,1.82
2023-03-13T08:12:52.926Z,1.37
2023-03-13T08:13:52.982Z,1.28
2023-03-13T08:14:53.023Z,1.83
2023-03-13T08:15:53.085Z,2.23
2023-03-13T08:16:53.225Z,1.93
2023-03-13T08:17:53.175Z,1.12
2023-03-13T08:18:53.211Z,0.86
2023-03-13T08:19:53.246Z,1.16
2023-03-13T08:20:53.312Z,1.28
2023-03-13T08:21:53.351Z,1.05
2023-03-13T08:22:53.401Z,0.74
2023-03-13T08:23:53.464Z,0.88
2023-03-13T08:24:53.510Z,0.98
2023-03-13T08:25:53.623Z,1.18
2023-03-13T08:26:53.582Z,0.79
2023-03-13T08:27:53.618Z,0.94
2023-03-13T08:28:53.660Z,0.99
2023-03-13T08:29:53.713Z,1.50
2023-03-13T08:30:53.936Z,1.33
2023-03-13T08:31:54.056Z,1.01
2023-03-13T08:32:54.330Z,1.12
2023-03-13T08:33:54.406Z,0.97
2023-03-13T08:34:54.562Z,0.90
2023-03-13T08:35:54.789Z,1.55
2023-03-13T08:36:54.910Z,0.96
2023-03-13T08:37:55.155Z,0.93
2023-03-13T08:38:55.366Z,0.91
2023-03-13T08:39:55.483Z,1.29
2023-03-13T08:40:56.305Z,1.15
2023-03-13T08:41:55.657Z,1.37
2023-03-13T08:42:55.664Z,0.99
2023-03-13T08:43:55.682Z,1.52
2023-03-13T08:44:57.307Z,1.21
2023-03-13T08:45:56.357Z,1.68
2023-03-13T08:46:55.708Z,1.29
2023-03-13T08:47:55.718Z,1.41
2023-03-13T08:48:55.754Z,1.30
2023-03-13T08:49:55.799Z,1.14
2023-03-13T08:50:55.823Z,1.15
2023-03-13T08:51:55.898Z,1.19
2023-03-13T08:52:55.898Z,1.15
2023-03-13T08:53:55.957Z,2.12
2023-03-13T08:54:55.881Z,2.12
2023-03-13T08:55:55.859Z,1.53
2023-03-13T08:56:55.843Z,1.39
2023-03-13T08:57:55.815Z,1.72
2023-03-13T08:58:55.808Z,1.44
2023-03-13T08:59:55.779Z,1.72
2023-03-13T09:00:56.753Z,1.01
2023-03-13T09:01:57.293Z,1.29
2023-03-13T09:02:56.321Z,1.07
2023-03-13T09:03:55.752Z,1.15
2023-03-13T09:04:55.654Z,1.44
2023-03-13T09:05:56.641Z,1.05
2023-03-13T09:06:55.598Z,0.97
2023-03-13T09:07:55.560Z,0.94
2023-03-13T10:51:02.363Z,1.34
2023-03-13T10:56:00.746Z,0.73
2023-03-13T10:57:00.956Z,1.00
2023-03-13T10:58:01.156Z,1.08
2023-03-13T10:59:01.337Z,0.78
2023-03-13T11:00:03.795Z,1.01
2023-03-13T11:01:01.370Z,0.82
2023-03-13T11:02:01.250Z,0.90
2023-03-13T11:03:01.263Z,1.05
2023-03-13T11:04:01.080Z,0.79
2023-03-13T11:05:00.913Z,0.68
2023-03-13T11:06:00.770Z,1.09
2023-03-13T11:07:00.653Z,1.42
2023-03-13T11:35:00.690Z,1.02
2023-03-13T11:36:00.907Z,0.77
2023-03-13T11:37:01.027Z,0.69
2023-03-13T11:38:01.178Z,0.74
2023-03-13T11:39:01.406Z,0.64
2023-03-13T11:40:01.556Z,1.73
2023-03-13T11:41:01.766Z,0.71
2023-03-13T11:42:01.906Z,0.59
2023-03-13T11:43:06.510Z,0.98
2023-03-13T11:44:02.955Z,0.98
2023-03-13T11:45:01.818Z,0.84
2023-03-13T11:46:01.808Z,0.76
2023-03-13T11:47:01.707Z,0.70
2023-03-13T11:48:01.415Z,0.49
2023-03-13T11:49:01.294Z,0.58
2023-03-13T11:50:01.136Z,0.65
2023-03-13T11:51:01.050Z,0.80
2023-03-13T11:52:00.867Z,0.78
2023-03-13T11:53:00.754Z,0.99
2023-03-13T12:08:00.625Z,0.65
2023-03-13T12:09:00.731Z,0.77
2023-03-13T12:10:00.844Z,0.51
2023-03-13T12:15:01.664Z,0.51
2023-03-13T14:09:10.631Z,2.14
2023-03-13T14:10:10.822Z,1.58
2023-03-13T14:11:10.857Z,1.63
2023-03-13T14:12:11.918Z,1.53
2023-03-13T14:13:10.805Z,1.46
2023-03-13T14:14:10.684Z,2.31
2023-03-13T14:18:10.735Z,1.92
2023-03-13T14:19:11.551Z,2.22
2023-03-13T14:32:10.722Z,2.01
2023-03-13T14:33:10.961Z,2.70
2023-03-13T14:34:11.026Z,1.39
2023-03-13T14:35:11.271Z,1.61
2023-03-13T14:36:11.449Z,1.51
2023-03-13T14:37:18.241Z,1.88
2023-03-13T14:38:12.323Z,1.56
2023-03-13T14:39:11.150Z,1.95
2023-03-13T14:40:10.961Z,1.59
2023-03-13T14:41:10.895Z,1.99
2023-03-13T14:42:11.069Z,2.34
2023-03-13T14:43:11.215Z,2.73
2023-03-13T14:44:11.383Z,2.74
2023-03-13T14:45:11.524Z,2.89
2023-03-13T14:46:11.661Z,1.82
2023-03-13T14:47:11.900Z,1.79
2023-03-13T14:48:12.020Z,1.39
2023-03-13T14:49:12.200Z,1.57
2023-03-13T14:50:12.322Z,1.36
2023-03-13T14:51:15.917Z,1.41
2023-03-13T14:52:12.283Z,1.74
2023-03-13T14:53:12.101Z,1.88
2023-03-13T14:54:12.001Z,1.61
2023-03-13T14:55:12.170Z,1.64
2023-03-13T14:56:12.421Z,1.38
2023-03-13T14:57:12.522Z,1.50
2023-03-13T14:58:12.683Z,1.33
2023-03-13T14:59:12.861Z,1.34
2023-03-13T15:00:13.023Z,1.97
2023-03-13T15:01:13.213Z,1.67
2023-03-13T15:02:13.414Z,2.31
2023-03-13T15:03:13.557Z,2.23
2023-03-13T15:04:13.851Z,1.52
2023-03-13T15:05:14.134Z,1.55
2023-03-13T15:06:14.109Z,2.18
2023-03-13T15:07:14.210Z,1.24
2023-03-13T15:08:14.558Z,1.68
2023-03-13T15:09:14.559Z,1.66
2023-03-13T15:10:14.825Z,1.48
2023-03-13T15:11:14.900Z,1.79
2023-03-13T15:12:15.065Z,1.67
2023-03-13T15:13:14.975Z,2.05
2023-03-13T15:14:14.726Z,2.03
2023-03-13T15:15:14.619Z,1.92
2023-03-13T15:16:14.827Z,1.62
2023-03-13T15:17:14.957Z,1.82
2023-03-13T15:18:15.124Z,1.38
2023-03-13T15:19:15.299Z,1.95
2023-03-13T15:20:15.483Z,1.74
2023-03-13T15:21:15.562Z,1.44
2023-03-13T15:22:15.745Z,1.75
2023-03-13T15:23:15.884Z,1.34
2023-03-13T15:24:16.051Z,2.32
2023-03-13T15:25:16.275Z,1.34
2023-03-13T15:26:16.391Z,1.54
2023-03-13T15:27:16.561Z,0.94
2023-03-13T15:28:16.739Z,1.17
2023-03-13T15:29:16.866Z,1.44
2023-03-13T15:30:16.996Z,1.49
2023-03-13T15:31:17.307Z,2.55
2023-03-13T15:32:17.447Z,2.56
2023-03-13T15:33:17.558Z,2.53
2023-03-13T15:34:17.720Z,2.64
2023-03-13T15:35:17.856Z,2.65
2023-03-13T15:36:18.090Z,2.36
2023-03-13T15:37:18.193Z,1.73
2023-03-13T15:38:18.395Z,1.43
2023-03-13T15:39:18.529Z,1.27
2023-03-13T15:40:18.737Z,1.47
2023-03-13T15:41:18.869Z,1.46
2023-03-13T15:42:19.067Z,1.57
2023-03-13T15:43:19.210Z,1.60
2023-03-13T15:44:19.357Z,0.95
2023-03-13T15:45:19.501Z,1.47
2023-03-13T15:46:19.764Z,1.66
2023-03-13T15:47:19.871Z,1.65
2023-03-13T15:48:19.973Z,1.08
2023-03-13T15:49:20.111Z,1.82
2023-03-13T15:50:20.358Z,1.75
2023-03-13T15:51:20.458Z,1.99
2023-03-13T15:52:20.609Z,2.01
2023-03-13T15:53:20.736Z,2.06
2023-03-13T15:54:20.886Z,2.09
2023-03-13T15:55:21.075Z,1.50
2023-03-13T15:56:21.271Z,1.57
2023-03-13T15:57:21.416Z,1.50
2023-03-13T15:58:21.558Z,1.53
2023-03-13T15:59:21.696Z,1.90
2023-03-13T16:00:21.849Z,2.22
2023-03-13T16:01:22.159Z,2.24
2023-03-13T16:02:22.234Z,2.23
2023-03-13T16:03:22.371Z,2.10
2023-03-13T16:04:22.613Z,2.15
2023-03-13T16:05:22.704Z,2.26
2023-03-13T16:06:22.919Z,2.80
2023-03-13T16:07:23.065Z,1.87
2023-03-13T16:08:34.653Z,1.98
2023-03-13T16:09:24.062Z,1.65
2023-03-13T16:10:25.247Z,1.81
2023-03-13T16:11:22.798Z,1.88
2023-03-13T16:12:22.668Z,1.99
2023-03-13T16:13:22.543Z,3.57
2023-03-13T16:14:22.412Z,3.71
2023-03-13T16:15:22.296Z,3.53
2023-03-13T16:16:22.203Z,3.59
2023-03-13T16:17:22.042Z,4.38
2023-03-13T16:18:21.928Z,4.69
2023-03-13T16:19:21.771Z,4.05
2023-03-13T16:20:21.694Z,3.45
2023-03-13T16:21:21.526Z,3.21
2023-03-13T16:22:21.404Z,2.35
2023-03-13T16:23:21.292Z,2.61
2023-03-13T16:24:21.183Z,3.08
2023-03-13T16:25:21.031Z,2.87
2023-03-13T16:26:20.905Z,2.32
2023-03-13T16:27:20.769Z,3.52
2023-03-13T16:28:20.684Z,3.56
2023-03-13T16:29:20.521Z,3.00
2023-03-13T16:30:20.410Z,3.08
2023-03-13T16:31:20.454Z,2.92
2023-03-13T16:32:20.188Z,2.99
2023-03-13T16:33:20.025Z,2.62
2023-03-13T16:34:19.904Z,2.37
2023-03-13T16:35:19.820Z,1.93
2023-03-13T16:36:19.681Z,2.37
2023-03-13T16:37:19.534Z,2.14
2023-03-13T16:38:19.417Z,2.38
2023-03-13T16:39:19.305Z,2.87
2023-03-13T16:40:19.206Z,2.80
2023-03-13T16:41:19.069Z,2.86
2023-03-13T16:42:19.012Z,2.20
2023-03-13T16:43:18.917Z,2.27
2023-03-13T16:44:18.789Z,2.55
2023-03-13T16:45:18.665Z,1.20
2023-03-13T16:46:18.540Z,1.65
2023-03-13T16:47:18.412Z,1.67
2023-03-13T16:48:18.287Z,1.54
2023-03-13T16:49:18.278Z,1.48
2023-03-13T17:03:20.633Z,1.24
2023-03-13T17:04:20.777Z,1.27
2023-03-13T17:05:20.957Z,1.84
2023-03-13T17:06:21.093Z,1.92
2023-03-13T17:07:21.246Z,1.58
2023-03-13T17:08:21.390Z,1.55
2023-03-13T17:09:21.557Z,1.63
2023-03-13T17:10:21.796Z,1.83
2023-03-13T17:11:21.814Z,4.97
2023-03-13T17:12:21.937Z,5.97
2023-03-13T17:13:22.071Z,4.56
2023-03-13T17:14:22.331Z,4.68
2023-03-13T17:15:22.560Z,4.09
2023-03-13T17:16:22.677Z,3.47
2023-03-13T17:17:22.817Z,2.94
2023-03-13T17:18:23.020Z,2.43
2023-03-13T17:19:23.195Z,2.14
2023-03-13T17:20:23.422Z,2.68
2023-03-13T17:21:23.569Z,2.07
2023-03-13T17:22:23.680Z,2.00
2023-03-13T18:06:30.620Z,7.94
2023-03-13T18:07:30.761Z,8.92
2023-03-13T18:08:30.911Z,8.87
2023-03-13T18:09:31.130Z,9.29
2023-03-13T18:10:31.266Z,7.95
2023-03-13T18:11:31.456Z,9.33
2023-03-13T18:12:31.598Z,7.50
2023-03-13T18:13:31.761Z,6.28
2023-03-13T18:14:31.929Z,5.33
2023-03-13T18:15:32.240Z,3.30
2023-03-13T18:16:32.322Z,3.69
2023-03-13T18:17:32.456Z,2.49
2023-03-13T18:18:32.647Z,4.45
2023-03-13T18:19:32.789Z,6.29
2023-03-13T19:03:40.683Z,7.68
2023-03-13T19:04:40.905Z,8.58
2023-03-13T19:05:41.050Z,9.61
2023-03-13T19:06:41.244Z,10.58
2023-03-13T19:07:41.442Z,10.16
2023-03-13T19:08:41.672Z,10.30
2023-03-13T19:09:43.960Z,9.45
2023-03-13T19:10:41.819Z,8.64
2023-03-13T19:11:41.703Z,7.69
2023-03-13T19:12:41.649Z,6.66
2023-03-13T19:13:41.576Z,3.39
2023-03-13T19:14:41.518Z,5.76
2023-03-13T19:15:41.465Z,9.12
2023-03-13T19:16:41.508Z,8.67
2023-03-13T19:17:41.377Z,9.60
2023-03-13T19:18:41.344Z,11.71
2023-03-13T19:19:41.291Z,14.96
2023-03-13T19:20:41.244Z,13.11
2023-03-13T19:21:41.209Z,17.97
2023-03-13T19:22:41.164Z,20.56
2023-03-13T19:23:41.113Z,15.11
2023-03-13T19:24:41.058Z,13.36
2023-03-13T19:25:40.989Z,13.16
2023-03-13T19:26:40.948Z,12.21
2023-03-13T19:27:40.883Z,11.98
2023-03-13T19:28:40.828Z,10.72
2023-03-13T19:29:40.782Z,10.55
2023-03-13T19:30:40.728Z,10.61
2023-03-13T19:31:40.738Z,11.62
2023-03-13T19:32:40.660Z,10.37
2023-03-13T20:35:40.712Z,6.82
2023-03-13T20:36:40.900Z,6.88
2023-03-13T20:37:41.051Z,6.36
2023-03-13T20:38:41.220Z,6.50
2023-03-13T20:39:41.430Z,7.56
2023-03-13T20:40:41.630Z,8.32
2023-03-13T20:41:41.791Z,8.50
2023-03-13T20:42:41.994Z,8.95
2023-03-13T20:43:42.213Z,8.83
2023-03-13T20:44:42.365Z,8.02
2023-03-13T20:45:42.567Z,8.43
2023-03-13T21:31:50.771Z,7.20
2023-03-13T21:32:51.009Z,9.83
2023-03-13T21:33:51.135Z,8.20
2023-03-13T21:34:51.277Z,7.65
2023-03-13T21:35:51.554Z,6.10
2023-03-13T21:36:51.693Z,6.97
2023-03-13T21:37:51.899Z,6.25
2023-03-13T21:38:52.023Z,5.72
2023-03-13T21:39:52.239Z,6.71
2023-03-13T21:40:52.401Z,5.91
2023-03-13T21:41:52.613Z,5.84
2023-03-13T21:42:52.816Z,7.13
2023-03-13T21:43:52.998Z,9.03
2023-03-13T21:44:53.133Z,6.89
2023-03-13T21:45:53.378Z,4.96
2023-03-13T21:46:53.587Z,5.71
2023-03-13T21:47:53.733Z,4.61
2023-03-13T21:48:53.907Z,4.85
2023-03-13T21:49:54.136Z,6.02
2023-03-13T21:50:54.326Z,31.38
2023-03-13T21:51:54.453Z,20.83
2023-03-13T21:52:54.648Z,18.44
2023-03-13T21:53:54.854Z,12.24
2023-03-13T21:54:54.998Z,8.83
2023-03-13T21:55:55.143Z,8.43
2023-03-13T21:56:55.331Z,7.37
2023-03-13T21:57:55.552Z,7.28
2023-03-13T21:58:55.690Z,13.09
2023-03-13T22:26:00.766Z,4.55
2023-03-13T22:27:00.927Z,4.67
2023-03-13T22:28:01.141Z,3.83
2023-03-13T22:29:01.421Z,4.72
2023-03-13T22:30:01.561Z,5.18
2023-03-13T22:31:01.702Z,4.12
2023-03-13T22:32:01.880Z,5.12
2023-03-13T22:33:02.150Z,6.30
2023-03-13T22:34:02.297Z,5.76
2023-03-13T22:35:02.522Z,6.07
2023-03-13T22:36:02.668Z,7.56
2023-03-13T22:38:03.005Z,7.75
2023-03-13T22:39:03.185Z,7.60
2023-03-13T22:40:03.387Z,6.80
2023-03-13T22:41:03.581Z,6.63
2023-03-13T22:43:04.011Z,7.79
2023-03-13T22:44:04.163Z,7.36
2023-03-13T22:45:04.340Z,7.15
2023-03-13T22:46:04.633Z,6.99
2023-03-13T22:47:04.747Z,6.44
2023-03-13T22:49:05.123Z,5.44
